sensor_id;sensor_type;location;lat;lon;timestamp;pressure;altitude;pressure_sealevel;temperature
62611;BMP280;48683;48.084;17.272;2023-04-29T00:00:28;100182.16;;;11.47
62611;BMP280;48683;48.084;17.272;2023-04-29T00:02:53;100171.38;;;11.50
62611;BMP280;48683;48.084;17.272;2023-04-29T00:05:19;100180.19;;;11.54
62611;BMP280;48683;48.084;17.272;2023-04-29T00:07:44;100175.22;;;11.49
62611;BMP280;48683;48.084;17.272;2023-04-29T00:10:09;100159.53;;;11.33
62611;BMP280;48683;48.084;17.272;2023-04-29T00:12:36;100167.97;;;11.42
62611;BMP280;48683;48.084;17.272;2023-04-29T00:15:02;100169.91;;;11.38
62611;BMP280;48683;48.084;17.272;2023-04-29T00:17:28;100165.66;;;11.37
62611;BMP280;48683;48.084;17.272;2023-04-29T00:19:54;100155.31;;;11.32
62611;BMP280;48683;48.084;17.272;2023-04-29T00:22:19;100167.22;;;11.35
62611;BMP280;48683;48.084;17.272;2023-04-29T00:24:46;100162.63;;;11.28
62611;BMP280;48683;48.084;17.272;2023-04-29T00:27:12;100163.41;;;11.29
62611;BMP280;48683;48.084;17.272;2023-04-29T00:29:37;100165.75;;;11.20
62611;BMP280;48683;48.084;17.272;2023-04-29T00:32:02;100156.94;;;11.12
62611;BMP280;48683;48.084;17.272;2023-04-29T00:34:28;100165.34;;;11.21
62611;BMP280;48683;48.084;17.272;2023-04-29T00:36:53;100158.81;;;11.26
62611;BMP280;48683;48.084;17.272;2023-04-29T00:39:19;100153.06;;;11.27
62611;BMP280;48683;48.084;17.272;2023-04-29T00:41:44;100156.88;;;11.26
62611;BMP280;48683;48.084;17.272;2023-04-29T00:44:09;100155.75;;;11.24
62611;BMP280;48683;48.084;17.272;2023-04-29T00:46:35;100161.91;;;11.24
62611;BMP280;48683;48.084;17.272;2023-04-29T00:49:01;100165.75;;;11.23
62611;BMP280;48683;48.084;17.272;2023-04-29T00:51:26;100158.44;;;11.24
62611;BMP280;48683;48.084;17.272;2023-04-29T00:53:52;100159.94;;;11.28
62611;BMP280;48683;48.084;17.272;2023-04-29T00:56:18;100155.34;;;11.25
62611;BMP280;48683;48.084;17.272;2023-04-29T00:58:45;100162.25;;;11.26
62611;BMP280;48683;48.084;17.272;2023-04-29T01:01:15;100156.09;;;11.29
62611;BMP280;48683;48.084;17.272;2023-04-29T01:03:40;100146.94;;;11.20
62611;BMP280;48683;48.084;17.272;2023-04-29T01:09:16;100156.91;;;11.19
62611;BMP280;48683;48.084;17.272;2023-04-29T01:11:54;100153.84;;;11.17
62611;BMP280;48683;48.084;17.272;2023-04-29T01:14:24;100155.00;;;11.13
62611;BMP280;48683;48.084;17.272;2023-04-29T01:16:58;100152.72;;;11.15
62611;BMP280;48683;48.084;17.272;2023-04-29T01:22:08;100155.03;;;11.09
62611;BMP280;48683;48.084;17.272;2023-04-29T01:24:33;100158.47;;;11.20
62611;BMP280;48683;48.084;17.272;2023-04-29T01:27:07;100155.00;;;11.20
62611;BMP280;48683;48.084;17.272;2023-04-29T01:29:43;100164.19;;;11.22
62611;BMP280;48683;48.084;17.272;2023-04-29T01:32:17;100159.63;;;11.05
62611;BMP280;48683;48.084;17.272;2023-04-29T01:35:14;100162.72;;;11.04
62611;BMP280;48683;48.084;17.272;2023-04-29T01:40:49;100161.13;;;11.17
62611;BMP280;48683;48.084;17.272;2023-04-29T01:43:22;100172.66;;;11.17
62611;BMP280;48683;48.084;17.272;2023-04-29T01:45:49;100156.94;;;11.16
62611;BMP280;48683;48.084;17.272;2023-04-29T01:48:16;100167.28;;;11.17
62611;BMP280;48683;48.084;17.272;2023-04-29T01:50:42;100166.88;;;11.22
62611;BMP280;48683;48.084;17.272;2023-04-29T01:53:08;100164.56;;;11.21
62611;BMP280;48683;48.084;17.272;2023-04-29T01:55:34;100166.50;;;11.17
62611;BMP280;48683;48.084;17.272;2023-04-29T01:57:59;100161.91;;;11.17
62611;BMP280;48683;48.084;17.272;2023-04-29T02:00:24;100162.31;;;11.12
62611;BMP280;48683;48.084;17.272;2023-04-29T02:02:50;100162.31;;;11.12
62611;BMP280;48683;48.084;17.272;2023-04-29T02:05:15;100164.22;;;11.15
62611;BMP280;48683;48.084;17.272;2023-04-29T02:07:41;100175.75;;;11.16
62611;BMP280;48683;48.084;17.272;2023-04-29T02:10:09;100171.53;;;11.15
62611;BMP280;48683;48.084;17.272;2023-04-29T02:12:34;100167.28;;;11.14
62611;BMP280;48683;48.084;17.272;2023-04-29T02:15:00;100149.28;;;11.11
62611;BMP280;48683;48.084;17.272;2023-04-29T02:17:26;100155.38;;;11.22
62611;BMP280;48683;48.084;17.272;2023-04-29T02:19:51;100157.31;;;11.18
62611;BMP280;48683;48.084;17.272;2023-04-29T02:22:19;100155.00;;;11.13
62611;BMP280;48683;48.084;17.272;2023-04-29T02:24:45;100156.94;;;11.12
62611;BMP280;48683;48.084;17.272;2023-04-29T02:27:10;100148.88;;;11.16
62611;BMP280;48683;48.084;17.272;2023-04-29T02:29:36;100150.81;;;11.15
62611;BMP280;48683;48.084;17.272;2023-04-29T02:32:01;100149.25;;;11.18
62611;BMP280;48683;48.084;17.272;2023-04-29T02:34:26;100148.47;;;11.21
62611;BMP280;48683;48.084;17.272;2023-04-29T02:36:52;100154.25;;;11.16
62611;BMP280;48683;48.084;17.272;2023-04-29T02:39:17;100161.88;;;11.21
62611;BMP280;48683;48.084;17.272;2023-04-29T02:41:44;100160.41;;;11.16
62611;BMP280;48683;48.084;17.272;2023-04-29T02:44:09;100160.00;;;11.14
62611;BMP280;48683;48.084;17.272;2023-04-29T02:46:35;100171.13;;;11.09
62611;BMP280;48683;48.084;17.272;2023-04-29T02:49:01;100169.22;;;11.13
62611;BMP280;48683;48.084;17.272;2023-04-29T02:51:27;100169.97;;;11.14
62611;BMP280;48683;48.084;17.272;2023-04-29T02:53:53;100166.19;;;11.04
62611;BMP280;48683;48.084;17.272;2023-04-29T02:56:18;100168.47;;;11.02
62611;BMP280;48683;48.084;17.272;2023-04-29T02:58:44;100166.94;;;11.08
62611;BMP280;48683;48.084;17.272;2023-04-29T03:01:09;100158.88;;;11.12
62611;BMP280;48683;48.084;17.272;2023-04-29T03:03:35;100155.09;;;10.95
62611;BMP280;48683;48.084;17.272;2023-04-29T03:06:01;100163.91;;;10.92
62611;BMP280;48683;48.084;17.272;2023-04-29T03:08:26;100171.19;;;10.99
62611;BMP280;48683;48.084;17.272;2023-04-29T03:10:52;100168.88;;;11.01
62611;BMP280;48683;48.084;17.272;2023-04-29T03:13:17;100158.88;;;11.01
62611;BMP280;48683;48.084;17.272;2023-04-29T03:15:43;100163.09;;;11.02
62611;BMP280;48683;48.084;17.272;2023-04-29T03:18:08;100161.22;;;10.99
62611;BMP280;48683;48.084;17.272;2023-04-29T03:20:34;100140.16;;;10.83
62611;BMP280;48683;48.084;17.272;2023-04-29T03:22:59;100148.59;;;10.85
62611;BMP280;48683;48.084;17.272;2023-04-29T03:25:25;100152.03;;;10.86
62611;BMP280;48683;48.084;17.272;2023-04-29T03:27:50;100142.09;;;10.76
62611;BMP280;48683;48.084;17.272;2023-04-29T03:30:16;100148.59;;;10.75
62611;BMP280;48683;48.084;17.272;2023-04-29T03:32:41;100151.28;;;10.75
62611;BMP280;48683;48.084;17.272;2023-04-29T03:35:07;100154.34;;;10.80
62611;BMP280;48683;48.084;17.272;2023-04-29T03:37:32;100153.19;;;10.78
62611;BMP280;48683;48.084;17.272;2023-04-29T03:39:58;100168.16;;;10.82
62611;BMP280;48683;48.084;17.272;2023-04-29T03:42:23;100162.41;;;10.80
62611;BMP280;48683;48.084;17.272;2023-04-29T03:44:48;100166.63;;;10.81
62611;BMP280;48683;48.084;17.272;2023-04-29T03:47:14;100165.47;;;10.82
62611;BMP280;48683;48.084;17.272;2023-04-29T03:49:39;100172.00;;;10.81
62611;BMP280;48683;48.084;17.272;2023-04-29T03:52:05;100167.41;;;10.85
62611;BMP280;48683;48.084;17.272;2023-04-29T03:54:30;100155.50;;;10.76
62611;BMP280;48683;48.084;17.272;2023-04-29T03:56:56;100171.22;;;10.84
62611;BMP280;48683;48.084;17.272;2023-04-29T03:59:21;100168.94;;;10.79
62611;BMP280;48683;48.084;17.272;2023-04-29T04:01:46;100184.63;;;10.88
62611;BMP280;48683;48.084;17.272;2023-04-29T04:04:12;100182.75;;;10.81
62611;BMP280;48683;48.084;17.272;2023-04-29T04:06:37;100190.38;;;10.90
62611;BMP280;48683;48.084;17.272;2023-04-29T04:09:03;100189.22;;;10.94
62611;BMP280;48683;48.084;17.272;2023-04-29T04:11:28;100189.63;;;10.97
62611;BMP280;48683;48.084;17.272;2023-04-29T04:13:54;100188.84;;;11.00
62611;BMP280;48683;48.084;17.272;2023-04-29T04:16:19;100193.06;;;10.97
62611;BMP280;48683;48.084;17.272;2023-04-29T04:18:45;100193.81;;;10.98
62611;BMP280;48683;48.084;17.272;2023-04-29T04:21:11;100203.41;;;10.99
62611;BMP280;48683;48.084;17.272;2023-04-29T04:23:37;100191.13;;;10.94
62611;BMP280;48683;48.084;17.272;2023-04-29T04:26:05;100185.75;;;10.94
62611;BMP280;48683;48.084;17.272;2023-04-29T04:28:30;100194.97;;;11.00
62611;BMP280;48683;48.084;17.272;2023-04-29T04:30:56;100183.47;;;11.00
62611;BMP280;48683;48.084;17.272;2023-04-29T04:33:21;100186.91;;;11.07
62611;BMP280;48683;48.084;17.272;2023-04-29T04:35:47;100186.50;;;11.05
62611;BMP280;48683;48.084;17.272;2023-04-29T04:38:12;100181.13;;;11.05
62611;BMP280;48683;48.084;17.272;2023-04-29T04:40:42;100177.28;;;11.06
62611;BMP280;48683;48.084;17.272;2023-04-29T04:43:08;100181.50;;;11.11
62611;BMP280;48683;48.084;17.272;2023-04-29T04:45:34;100175.34;;;11.14
62611;BMP280;48683;48.084;17.272;2023-04-29T04:47:59;100184.94;;;11.22
62611;BMP280;48683;48.084;17.272;2023-04-29T04:50:28;100182.22;;;11.29
62611;BMP280;48683;48.084;17.272;2023-04-29T04:52:56;100181.81;;;11.30
62611;BMP280;48683;48.084;17.272;2023-04-29T04:55:22;100179.91;;;11.34
62611;BMP280;48683;48.084;17.272;2023-04-29T04:57:48;100171.84;;;11.34
62611;BMP280;48683;48.084;17.272;2023-04-29T05:00:13;100171.44;;;11.39
62611;BMP280;48683;48.084;17.272;2023-04-29T05:02:39;100179.06;;;11.44
62611;BMP280;48683;48.084;17.272;2023-04-29T05:05:05;100188.66;;;11.49
62611;BMP280;48683;48.084;17.272;2023-04-29T05:07:31;100184.81;;;11.54
62611;BMP280;48683;48.084;17.272;2023-04-29T05:09:57;100182.47;;;11.56
62611;BMP280;48683;48.084;17.272;2023-04-29T05:12:22;100187.09;;;11.59
62611;BMP280;48683;48.084;17.272;2023-04-29T05:14:52;100185.16;;;11.59
62611;BMP280;48683;48.084;17.272;2023-04-29T05:17:17;100184.00;;;11.60
62611;BMP280;48683;48.084;17.272;2023-04-29T05:19:42;100175.53;;;11.62
62611;BMP280;48683;48.084;17.272;2023-04-29T05:22:08;100182.06;;;11.61
62611;BMP280;48683;48.084;17.272;2023-04-29T05:24:33;100181.69;;;11.62
62611;BMP280;48683;48.084;17.272;2023-04-29T05:26:59;100182.03;;;11.71
62611;BMP280;48683;48.084;17.272;2023-04-29T05:29:24;100185.44;;;11.79
62611;BMP280;48683;48.084;17.272;2023-04-29T05:31:51;100177.78;;;11.77
62611;BMP280;48683;48.084;17.272;2023-04-29T05:34:16;100181.97;;;11.85
62611;BMP280;48683;48.084;17.272;2023-04-29T05:36:42;100185.38;;;11.93
62611;BMP280;48683;48.084;17.272;2023-04-29T05:39:07;100180.00;;;11.93
62611;BMP280;48683;48.084;17.272;2023-04-29T05:41:32;100184.97;;;11.98
62611;BMP280;48683;48.084;17.272;2023-04-29T05:43:58;100198.34;;;12.09
62611;BMP280;48683;48.084;17.272;2023-04-29T05:46:23;100180.28;;;12.09
62611;BMP280;48683;48.084;17.272;2023-04-29T05:48:48;100192.09;;;12.22
62611;BMP280;48683;48.084;17.272;2023-04-29T05:51:14;100196.66;;;12.32
62611;BMP280;48683;48.084;17.272;2023-04-29T05:53:39;100186.97;;;12.38
62611;BMP280;48683;48.084;17.272;2023-04-29T05:56:05;100203.47;;;12.44
62611;BMP280;48683;48.084;17.272;2023-04-29T05:58:35;100200.03;;;12.40
62611;BMP280;48683;48.084;17.272;2023-04-29T06:01:01;100203.16;;;12.35
62611;BMP280;48683;48.084;17.272;2023-04-29T06:03:27;100201.59;;;12.37
62611;BMP280;48683;48.084;17.272;2023-04-29T06:05:52;100193.19;;;12.32
62611;BMP280;48683;48.084;17.272;2023-04-29T06:08:18;100201.63;;;12.30
62611;BMP280;48683;48.084;17.272;2023-04-29T06:10:44;100201.22;;;12.35
62611;BMP280;48683;48.084;17.272;2023-04-29T06:13:10;100208.56;;;12.31
62611;BMP280;48683;48.084;17.272;2023-04-29T06:15:35;100212.34;;;12.41
62611;BMP280;48683;48.084;17.272;2023-04-29T06:18:01;100212.28;;;12.48
62611;BMP280;48683;48.084;17.272;2023-04-29T06:20:26;100218.81;;;12.47
62611;BMP280;48683;48.084;17.272;2023-04-29T06:22:52;100208.44;;;12.46
62611;BMP280;48683;48.084;17.272;2023-04-29T06:25:17;100221.44;;;12.54
62611;BMP280;48683;48.084;17.272;2023-04-29T06:27:42;100216.06;;;12.54
62611;BMP280;48683;48.084;17.272;2023-04-29T06:30:08;100225.28;;;12.57
62611;BMP280;48683;48.084;17.272;2023-04-29T06:32:34;100229.88;;;12.60
62611;BMP280;48683;48.084;17.272;2023-04-29T06:34:59;100217.56;;;12.59
62611;BMP280;48683;48.084;17.272;2023-04-29T06:37:25;100209.22;;;12.46
62611;BMP280;48683;48.084;17.272;2023-04-29T06:39:51;100228.81;;;12.47
62611;BMP280;48683;48.084;17.272;2023-04-29T06:42:16;100229.53;;;12.54
62611;BMP280;48683;48.084;17.272;2023-04-29T06:44:42;100231.38;;;12.64
62611;BMP280;48683;48.084;17.272;2023-04-29T06:47:08;100222.53;;;12.64
62611;BMP280;48683;48.084;17.272;2023-04-29T06:49:33;100225.56;;;12.69
62611;BMP280;48683;48.084;17.272;2023-04-29T06:51:59;100229.75;;;12.74
62611;BMP280;48683;48.084;17.272;2023-04-29T06:54:26;100231.22;;;12.82
62611;BMP280;48683;48.084;17.272;2023-04-29T06:56:52;100225.75;;;12.89
62611;BMP280;48683;48.084;17.272;2023-04-29T06:59:18;100230.72;;;12.94
62611;BMP280;48683;48.084;17.272;2023-04-29T07:01:43;100225.34;;;12.94
62611;BMP280;48683;48.084;17.272;2023-04-29T07:04:09;100237.97;;;13.01
62611;BMP280;48683;48.084;17.272;2023-04-29T07:06:34;100230.25;;;13.03
62611;BMP280;48683;48.084;17.272;2023-04-29T07:09:01;100234.81;;;13.09
62611;BMP280;48683;48.084;17.272;2023-04-29T07:11:26;100228.66;;;13.09
62611;BMP280;48683;48.084;17.272;2023-04-29T07:13:51;100236.72;;;13.12
62611;BMP280;48683;48.084;17.272;2023-04-29T07:16:17;100227.56;;;13.03
62611;BMP280;48683;48.084;17.272;2023-04-29T07:18:45;100232.06;;;13.16
62611;BMP280;48683;48.084;17.272;2023-04-29T07:21:11;100237.44;;;13.16
62611;BMP280;48683;48.084;17.272;2023-04-29T07:23:36;100242.88;;;13.09
62611;BMP280;48683;48.084;17.272;2023-04-29T07:26:12;100252.88;;;13.12
62611;BMP280;48683;48.084;17.272;2023-04-29T07:28:38;100244.13;;;13.01
62611;BMP280;48683;48.084;17.272;2023-04-29T07:31:04;100244.13;;;13.01
62611;BMP280;48683;48.084;17.272;2023-04-29T07:33:30;100237.66;;;12.95
62611;BMP280;48683;48.084;17.272;2023-04-29T07:35:55;100238.00;;;12.97
62611;BMP280;48683;48.084;17.272;2023-04-29T07:38:21;100237.19;;;13.00
62611;BMP280;48683;48.084;17.272;2023-04-29T07:40:46;100246.38;;;13.06
62611;BMP280;48683;48.084;17.272;2023-04-29T07:43:11;100239.78;;;13.14
62611;BMP280;48683;48.084;17.272;2023-04-29T07:45:37;100256.19;;;13.27
62611;BMP280;48683;48.084;17.272;2023-04-29T07:48:04;100254.25;;;13.27
62611;BMP280;48683;48.084;17.272;2023-04-29T07:50:29;100262.59;;;13.40
62611;BMP280;48683;48.084;17.272;2023-04-29T07:52:55;100261.13;;;13.36
62611;BMP280;48683;48.084;17.272;2023-04-29T07:55:22;100263.00;;;13.42
62611;BMP280;48683;48.084;17.272;2023-04-29T07:57:47;100254.56;;;13.37
62611;BMP280;48683;48.084;17.272;2023-04-29T08:00:13;100266.84;;;13.41
62611;BMP280;48683;48.084;17.272;2023-04-29T08:02:38;100263.69;;;13.46
62611;BMP280;48683;48.084;17.272;2023-04-29T08:05:03;100263.25;;;13.51
62611;BMP280;48683;48.084;17.272;2023-04-29T08:07:29;100268.16;;;13.60
62611;BMP280;48683;48.084;17.272;2023-04-29T08:09:54;100256.31;;;13.54
62611;BMP280;48683;48.084;17.272;2023-04-29T08:12:20;100267.91;;;13.47
62611;BMP280;48683;48.084;17.272;2023-04-29T08:14:45;100258.78;;;13.38
62611;BMP280;48683;48.084;17.272;2023-04-29T08:17:10;100258.28;;;13.46
62611;BMP280;48683;48.084;17.272;2023-04-29T08:19:36;100266.66;;;13.55
62611;BMP280;48683;48.084;17.272;2023-04-29T08:22:01;100259.47;;;13.45
62611;BMP280;48683;48.084;17.272;2023-04-29T08:24:28;100255.72;;;13.36
62611;BMP280;48683;48.084;17.272;2023-04-29T08:26:53;100271.91;;;13.36
62611;BMP280;48683;48.084;17.272;2023-04-29T08:29:19;100268.50;;;13.28
62611;BMP280;48683;48.084;17.272;2023-04-29T08:31:44;100273.19;;;13.24
62611;BMP280;48683;48.084;17.272;2023-04-29T08:34:10;100275.09;;;13.23
62611;BMP280;48683;48.084;17.272;2023-04-29T08:36:36;100279.69;;;13.30
62611;BMP280;48683;48.084;17.272;2023-04-29T08:39:03;100282.41;;;13.23
62611;BMP280;48683;48.084;17.272;2023-04-29T08:41:30;100276.31;;;13.19
62611;BMP280;48683;48.084;17.272;2023-04-29T08:43:58;100264.41;;;13.16
62611;BMP280;48683;48.084;17.272;2023-04-29T08:46:25;100279.69;;;13.30
62611;BMP280;48683;48.084;17.272;2023-04-29T08:48:51;100261.97;;;13.29
62611;BMP280;48683;48.084;17.272;2023-04-29T08:51:17;100268.66;;;13.51
62611;BMP280;48683;48.084;17.272;2023-04-29T08:53:42;100260.13;;;13.87
62611;BMP280;48683;48.084;17.272;2023-04-29T08:56:12;100270.75;;;14.27
62611;BMP280;48683;48.084;17.272;2023-04-29T08:58:39;100260.09;;;14.17
62611;BMP280;48683;48.084;17.272;2023-04-29T09:01:08;100262.28;;;14.25
62611;BMP280;48683;48.084;17.272;2023-04-29T09:03:39;100256.47;;;14.00
62611;BMP280;48683;48.084;17.272;2023-04-29T09:06:09;100262.66;;;14.27
62611;BMP280;48683;48.084;17.272;2023-04-29T09:08:35;100258.22;;;14.41
62611;BMP280;48683;48.084;17.272;2023-04-29T09:11:02;100258.03;;;14.51
62611;BMP280;48683;48.084;17.272;2023-04-29T09:13:29;100256.88;;;14.52
62611;BMP280;48683;48.084;17.272;2023-04-29T09:15:55;100257.41;;;14.67
62611;BMP280;48683;48.084;17.272;2023-04-29T09:21:23;100254.44;;;15.28
62611;BMP280;48683;48.084;17.272;2023-04-29T09:23:50;100259.94;;;15.63
62611;BMP280;48683;48.084;17.272;2023-04-29T09:26:15;100255.13;;;15.91
62611;BMP280;48683;48.084;17.272;2023-04-29T09:28:41;100250.31;;;15.98
62611;BMP280;48683;48.084;17.272;2023-04-29T09:31:09;100245.50;;;15.70
62611;BMP280;48683;48.084;17.272;2023-04-29T09:33:51;100253.75;;;15.63
62611;BMP280;48683;48.084;17.272;2023-04-29T09:36:36;100264.34;;;15.93
62611;BMP280;48683;48.084;17.272;2023-04-29T09:39:02;100263.13;;;16.14
62611;BMP280;48683;48.084;17.272;2023-04-29T09:41:29;100257.63;;;16.34
62611;BMP280;48683;48.084;17.272;2023-04-29T09:44:01;100250.44;;;16.43
62611;BMP280;48683;48.084;17.272;2023-04-29T09:46:28;100248.59;;;16.56
62611;BMP280;48683;48.084;17.272;2023-04-29T09:48:53;100248.31;;;16.51
62611;BMP280;48683;48.084;17.272;2023-04-29T09:51:19;100253.66;;;16.71
62611;BMP280;48683;48.084;17.272;2023-04-29T09:53:44;100258.03;;;16.97
62611;BMP280;48683;48.084;17.272;2023-04-29T09:56:09;100245.25;;;16.97
62611;BMP280;48683;48.084;17.272;2023-04-29T09:58:35;100247.16;;;16.84
62611;BMP280;48683;48.084;17.272;2023-04-29T10:01:04;100242.31;;;16.76
62611;BMP280;48683;48.084;17.272;2023-04-29T10:03:31;100246.31;;;16.71
62611;BMP280;48683;48.084;17.272;2023-04-29T10:05:57;100250.88;;;16.74
62611;BMP280;48683;48.084;17.272;2023-04-29T10:08:22;100253.09;;;16.63
62611;BMP280;48683;48.084;17.272;2023-04-29T10:10:47;100243.25;;;16.53
62611;BMP280;48683;48.084;17.272;2023-04-29T10:13:15;100253.59;;;16.58
62611;BMP280;48683;48.084;17.272;2023-04-29T10:15:47;100252.47;;;16.55
62611;BMP280;48683;48.084;17.272;2023-04-29T10:18:18;100247.41;;;16.57
62611;BMP280;48683;48.084;17.272;2023-04-29T10:20:45;100248.00;;;16.49
62611;BMP280;48683;48.084;17.272;2023-04-29T10:23:11;100244.69;;;16.41
62611;BMP280;48683;48.084;17.272;2023-04-29T10:25:38;100245.38;;;16.45
62611;BMP280;48683;48.084;17.272;2023-04-29T10:28:03;100231.28;;;16.50
62611;BMP280;48683;48.084;17.272;2023-04-29T10:30:29;100231.97;;;16.54
62611;BMP280;48683;48.084;17.272;2023-04-29T10:32:55;100226.53;;;16.54
62611;BMP280;48683;48.084;17.272;2023-04-29T10:35:23;100228.19;;;16.68
62611;BMP280;48683;48.084;17.272;2023-04-29T10:37:49;100220.66;;;16.59
62611;BMP280;48683;48.084;17.272;2023-04-29T10:40:15;100211.50;;;16.53
62611;BMP280;48683;48.084;17.272;2023-04-29T10:45:52;100212.69;;;16.52
62611;BMP280;48683;48.084;17.272;2023-04-29T10:53:10;100185.69;;;16.33
62611;BMP280;48683;48.084;17.272;2023-04-29T10:55:36;100195.16;;;16.25
62611;BMP280;48683;48.084;17.272;2023-04-29T10:58:02;100198.97;;;16.27
62611;BMP280;48683;48.084;17.272;2023-04-29T11:00:28;100191.19;;;16.29
62611;BMP280;48683;48.084;17.272;2023-04-29T11:02:54;100197.47;;;16.26
62611;BMP280;48683;48.084;17.272;2023-04-29T11:08:14;100190.84;;;16.27
62611;BMP280;48683;48.084;17.272;2023-04-29T11:10:47;100195.00;;;16.32
62611;BMP280;48683;48.084;17.272;2023-04-29T11:13:29;100198.63;;;16.25
62611;BMP280;48683;48.084;17.272;2023-04-29T11:16:04;100197.47;;;16.26
62611;BMP280;48683;48.084;17.272;2023-04-29T11:18:30;100195.16;;;16.25
62611;BMP280;48683;48.084;17.272;2023-04-29T11:23:33;100204.72;;;16.45
62611;BMP280;48683;48.084;17.272;2023-04-29T11:25:58;100204.88;;;16.54
62611;BMP280;48683;48.084;17.272;2023-04-29T11:28:23;100207.94;;;16.73
62611;BMP280;48683;48.084;17.272;2023-04-29T11:30:49;100206.41;;;16.72
62611;BMP280;48683;48.084;17.272;2023-04-29T11:33:14;100201.41;;;16.70
62611;BMP280;48683;48.084;17.272;2023-04-29T11:35:40;100199.56;;;16.67
62611;BMP280;48683;48.084;17.272;2023-04-29T11:38:06;100197.16;;;16.69
62611;BMP280;48683;48.084;17.272;2023-04-29T11:40:31;100194.91;;;16.68
62611;BMP280;48683;48.084;17.272;2023-04-29T11:42:57;100187.25;;;16.46
62611;BMP280;48683;48.084;17.272;2023-04-29T11:45:22;100188.56;;;16.58
62611;BMP280;48683;48.084;17.272;2023-04-29T11:47:47;100191.31;;;16.54
62611;BMP280;48683;48.084;17.272;2023-04-29T11:50:13;100183.72;;;16.66
62611;BMP280;48683;48.084;17.272;2023-04-29T11:52:41;100177.53;;;16.49
62611;BMP280;48683;48.084;17.272;2023-04-29T11:55:10;100178.63;;;16.51
62611;BMP280;48683;48.084;17.272;2023-04-29T11:57:36;100192.28;;;16.48
62611;BMP280;48683;48.084;17.272;2023-04-29T12:00:01;100194.91;;;16.35
62611;BMP280;48683;48.084;17.272;2023-04-29T12:02:29;100195.56;;;16.39
62611;BMP280;48683;48.084;17.272;2023-04-29T12:04:54;100197.69;;;16.48
62611;BMP280;48683;48.084;17.272;2023-04-29T12:07:21;100185.50;;;16.56
62611;BMP280;48683;48.084;17.272;2023-04-29T12:09:46;100187.72;;;16.61
62611;BMP280;48683;48.084;17.272;2023-04-29T12:12:12;100181.69;;;16.53
62611;BMP280;48683;48.084;17.272;2023-04-29T12:14:38;100188.13;;;16.76
62611;BMP280;48683;48.084;17.272;2023-04-29T12:17:04;100180.34;;;17.19
62611;BMP280;48683;48.084;17.272;2023-04-29T12:19:29;100174.38;;;17.24
62611;BMP280;48683;48.084;17.272;2023-04-29T12:21:57;100170.34;;;17.16
62611;BMP280;48683;48.084;17.272;2023-04-29T12:24:23;100162.44;;;17.22
62611;BMP280;48683;48.084;17.272;2023-04-29T12:26:48;100163.97;;;17.23
62611;BMP280;48683;48.084;17.272;2023-04-29T12:29:13;100169.66;;;17.41
62611;BMP280;48683;48.084;17.272;2023-04-29T12:31:39;100160.09;;;17.36
62611;BMP280;48683;48.084;17.272;2023-04-29T12:34:04;100167.88;;;17.76
62611;BMP280;48683;48.084;17.272;2023-04-29T12:36:29;100174.81;;;17.89
62611;BMP280;48683;48.084;17.272;2023-04-29T12:38:55;100163.19;;;17.89
62611;BMP280;48683;48.084;17.272;2023-04-29T12:41:34;100159.69;;;18.14
62611;BMP280;48683;48.084;17.272;2023-04-29T12:44:00;100153.69;;;18.31
62611;BMP280;48683;48.084;17.272;2023-04-29T12:46:25;100152.91;;;18.31
62611;BMP280;48683;48.084;17.272;2023-04-29T12:48:50;100137.00;;;17.95
62611;BMP280;48683;48.084;17.272;2023-04-29T12:51:15;100144.63;;;17.87
62611;BMP280;48683;48.084;17.272;2023-04-29T12:53:42;100142.78;;;17.97
62611;BMP280;48683;48.084;17.272;2023-04-29T12:56:07;100140.47;;;18.08
62611;BMP280;48683;48.084;17.272;2023-04-29T12:58:32;100140.66;;;18.14
62611;BMP280;48683;48.084;17.272;2023-04-29T13:00:58;100142.19;;;18.15
62611;BMP280;48683;48.084;17.272;2023-04-29T13:03:24;100144.69;;;18.22
62611;BMP280;48683;48.084;17.272;2023-04-29T13:05:49;100137.13;;;18.04
62611;BMP280;48683;48.084;17.272;2023-04-29T13:08:16;100127.44;;;17.90
62611;BMP280;48683;48.084;17.272;2023-04-29T13:10:42;100125.50;;;17.78
62611;BMP280;48683;48.084;17.272;2023-04-29T13:13:07;100124.00;;;17.77
62611;BMP280;48683;48.084;17.272;2023-04-29T13:15:33;100118.34;;;17.72
62611;BMP280;48683;48.084;17.272;2023-04-29T13:17:59;100119.88;;;17.85
62611;BMP280;48683;48.084;17.272;2023-04-29T13:20:25;100106.94;;;17.77
62611;BMP280;48683;48.084;17.272;2023-04-29T13:22:51;100109.75;;;17.86
62611;BMP280;48683;48.084;17.272;2023-04-29T13:25:16;100108.72;;;18.18
62611;BMP280;48683;48.084;17.272;2023-04-29T13:27:41;100103.72;;;18.63
62611;BMP280;48683;48.084;17.272;2023-04-29T13:30:08;100114.94;;;18.96
62611;BMP280;48683;48.084;17.272;2023-04-29T13:32:33;100102.03;;;19.09
62611;BMP280;48683;48.084;17.272;2023-04-29T13:34:58;100094.25;;;19.20
62611;BMP280;48683;48.084;17.272;2023-04-29T13:37:24;100096.41;;;19.34
62611;BMP280;48683;48.084;17.272;2023-04-29T13:39:49;100080.72;;;19.38
62611;BMP280;48683;48.084;17.272;2023-04-29T13:42:14;100088.31;;;18.91
62611;BMP280;48683;48.084;17.272;2023-04-29T13:44:40;100089.81;;;18.83
62611;BMP280;48683;48.084;17.272;2023-04-29T13:47:14;100089.84;;;18.92
62611;BMP280;48683;48.084;17.272;2023-04-29T13:49:40;100093.03;;;18.90
62611;BMP280;48683;48.084;17.272;2023-04-29T13:52:06;100083.28;;;18.80
62611;BMP280;48683;48.084;17.272;2023-04-29T13:54:31;100076.66;;;18.81
62611;BMP280;48683;48.084;17.272;2023-04-29T13:56:57;100099.25;;;19.00
62611;BMP280;48683;48.084;17.272;2023-04-29T13:59:22;100092.56;;;19.14
62611;BMP280;48683;48.084;17.272;2023-04-29T14:01:47;100094.09;;;19.24
62611;BMP280;48683;48.084;17.272;2023-04-29T14:04:15;100083.41;;;19.29